Time;durP1;ratioP1;P1;durP2;ratioP2;P2;SDS_P1;SDS_P2;PMS_P1;PMS_P2;Temp;Humidity;BMP_temperature;BMP_pressure;BME280_temperature;BME280_humidity;BME280_pressure;Samples;Min_cycle;Max_cycle;Signal;HPM_P1;HPM_P2
2022/05/09 00:01:24;;;;;;;14.20;6.00;;;;;;;10.86;52.51;101529.10;110515;1253;23148;-76
2022/05/09 00:03:56;;;;;;;10.70;4.90;;;;;;;10.79;52.68;101535.73;110653;1253;21961;-77
2022/05/09 00:06:25;;;;;;;12.20;6.00;;;;;;;10.75;52.95;101539.10;110642;1253;21974;-77
2022/05/09 00:08:54;;;;;;;11.60;5.70;;;;;;;10.72;53.08;101539.80;110372;1253;21960;-77
2022/05/09 00:11:25;;;;;;;11.30;5.80;;;;;;;10.67;53.17;101540.36;110549;1254;22997;-76
2022/05/09 00:13:54;;;;;;;10.40;6.00;;;;;;;10.64;53.34;101541.05;110654;1253;23603;-76
2022/05/09 00:16:24;;;;;;;11.30;5.60;;;;;;;10.62;53.49;101542.99;110666;1253;23629;-76
2022/05/09 00:18:53;;;;;;;11.90;6.10;;;;;;;10.60;53.69;101541.75;110788;1253;22032;-76
2022/05/09 00:21:24;;;;;;;11.90;6.10;;;;;;;10.59;53.84;101546.92;110636;1252;22601;-77
2022/05/09 00:23:53;;;;;;;15.90;5.90;;;;;;;10.56;53.99;101546.80;110509;1254;21972;-76
2022/05/09 00:26:27;;;;;;;12.60;6.10;;;;;;;10.53;54.05;101542.39;110763;1252;23680;-77
2022/05/09 00:28:59;;;;;;;12.50;6.90;;;;;;;10.48;54.09;101544.75;110545;1254;21980;-77
2022/05/09 00:31:29;;;;;;;14.80;6.70;;;;;;;10.41;54.17;101543.77;110552;1254;21972;-77
2022/05/09 00:34:03;;;;;;;16.30;7.60;;;;;;;10.32;54.28;101543.55;110488;1251;23076;-77
2022/05/09 00:36:32;;;;;;;16.20;7.00;;;;;;;10.24;54.58;101544.73;110667;1251;23566;-76
2022/05/09 00:39:03;;;;;;;11.40;6.10;;;;;;;10.21;54.88;101549.95;110692;1251;23700;-77
2022/05/09 00:41:37;;;;;;;19.00;6.80;;;;;;;10.20;55.13;101550.95;110713;1251;23050;-77
2022/05/09 00:44:14;;;;;;;10.00;6.20;;;;;;;10.18;55.10;101552.29;110655;1251;23683;-77
2022/05/09 00:46:47;;;;;;;16.50;7.40;;;;;;;10.15;55.17;101551.30;110669;1251;23632;-77
2022/05/09 00:49:23;;;;;;;13.60;7.00;;;;;;;10.15;55.50;101552.61;110314;1256;21973;-76
2022/05/09 00:52:22;;;;;;;10.90;6.80;;;;;;;10.15;55.64;101558.78;110456;1256;23673;-76
2022/05/09 00:55:03;;;;;;;13.80;7.10;;;;;;;10.10;55.68;101560.05;110481;1256;21978;-76
2022/05/09 00:57:38;;;;;;;17.70;7.30;;;;;;;10.06;55.96;101563.45;110240;1256;23875;-76
2022/05/09 01:00:14;;;;;;;11.40;6.90;;;;;;;10.01;56.12;101567.56;110400;1257;22727;-76
2022/05/09 01:02:48;;;;;;;12.20;6.90;;;;;;;9.96;56.25;101566.59;110295;1257;21960;-77
2022/05/09 01:05:18;;;;;;;13.90;7.80;;;;;;;9.90;56.29;101566.71;110308;1257;23135;-77
2022/05/09 01:07:47;;;;;;;15.60;7.10;;;;;;;9.86;56.45;101568.65;110514;1251;22026;-77
2022/05/09 01:10:17;;;;;;;16.50;7.40;;;;;;;9.84;56.79;101565.86;110770;1251;23025;-77
2022/05/09 01:12:46;;;;;;;11.80;6.20;;;;;;;9.81;56.93;101559.96;110797;1251;21967;-77
2022/05/09 01:15:22;;;;;;;10.20;6.90;;;;;;;9.78;57.20;101562.11;110550;1251;24285;-77
2022/05/09 01:17:52;;;;;;;12.60;7.00;;;;;;;9.73;57.33;101565.40;110713;1251;23710;-76
2022/05/09 01:20:24;;;;;;;13.30;8.70;;;;;;;9.67;57.55;101565.09;110640;1253;22397;-77
2022/05/09 01:22:57;;;;;;;12.30;7.10;;;;;;;9.59;57.85;101566.09;110707;1252;23067;-77
2022/05/09 01:25:29;;;;;;;14.30;7.50;;;;;;;9.52;58.10;101568.45;110823;1252;22035;-77
2022/05/09 01:27:59;;;;;;;12.80;8.20;;;;;;;9.46;58.44;101570.55;110782;1251;23029;-77
2022/05/09 01:30:54;;;;;;;13.30;8.60;;;;;;;9.42;58.75;101573.66;110688;1252;21973;-77
2022/05/09 01:33:39;;;;;;;10.90;8.10;;;;;;;9.38;58.93;101573.30;110801;1251;23792;-76
2022/05/09 01:36:27;;;;;;;12.60;8.30;;;;;;;9.33;59.26;101575.31;110563;1254;21957;-76
2022/05/09 01:39:01;;;;;;;14.50;8.20;;;;;;;9.31;59.63;101576.75;110741;1252;22042;-76
2022/05/09 01:41:41;;;;;;;14.80;8.60;;;;;;;9.31;59.81;101574.65;110667;1252;21957;-76
2022/05/09 01:44:13;;;;;;;21.40;10.30;;;;;;;9.29;59.98;101579.53;110563;1254;22021;-77
2022/05/09 01:49:39;;;;;;;11.20;8.80;;;;;;;9.24;60.44;101578.39;110512;1252;23750;-76
2022/05/09 01:52:14;;;;;;;19.20;10.00;;;;;;;9.19;60.61;101577.72;110546;1252;21973;-76
2022/05/09 01:54:44;;;;;;;18.60;11.30;;;;;;;9.14;60.89;101580.98;110604;1252;24362;-76
2022/05/09 01:57:13;;;;;;;15.00;11.30;;;;;;;9.08;61.04;101578.88;110528;1251;22720;-77
2022/05/09 01:59:43;;;;;;;13.50;11.20;;;;;;;9.03;61.30;101581.40;110532;1252;21962;-76
2022/05/09 02:02:19;;;;;;;16.40;11.60;;;;;;;8.99;61.51;101583.14;110435;1252;22727;-77
2022/05/09 02:04:50;;;;;;;18.40;12.20;;;;;;;8.97;61.82;101584.19;110682;1252;21967;-76
2022/05/09 02:07:19;;;;;;;13.90;11.20;;;;;;;8.96;62.06;101582.63;110594;1253;22352;-76
2022/05/09 02:09:50;;;;;;;15.30;12.10;;;;;;;8.97;62.40;101579.75;110674;1252;22036;-76
2022/05/09 02:12:20;;;;;;;15.80;11.60;;;;;;;8.99;62.56;101578.05;110697;1253;21950;-76
2022/05/09 02:14:49;;;;;;;15.90;12.50;;;;;;;8.99;62.59;101578.77;110742;1251;21981;-76
2022/05/09 02:17:18;;;;;;;14.70;11.50;;;;;;;8.98;62.64;101581.82;110655;1252;22828;-76
2022/05/09 02:19:47;;;;;;;15.70;12.10;;;;;;;8.96;62.88;101584.93;110700;1252;22918;-77
2022/05/09 02:22:16;;;;;;;20.10;15.90;;;;;;;8.95;63.05;101579.95;110556;1252;21960;-77
2022/05/09 02:24:45;;;;;;;16.50;14.80;;;;;;;8.93;63.20;101581.69;110679;1252;22371;-77
2022/05/09 02:27:16;;;;;;;14.60;12.80;;;;;;;8.91;63.43;101581.32;110541;1253;22066;-76
2022/05/09 02:29:46;;;;;;;15.20;12.90;;;;;;;8.90;63.65;101581.20;110678;1252;23020;-78
2022/05/09 02:32:16;;;;;;;16.90;13.80;;;;;;;8.90;63.82;101584.05;110642;1252;21986;-76
2022/05/09 02:34:45;;;;;;;19.60;15.40;;;;;;;8.90;64.01;101582.11;110774;1251;22318;-77
2022/05/09 02:37:14;;;;;;;17.90;15.20;;;;;;;8.89;64.20;101583.71;110318;1257;21985;-77
2022/05/09 02:39:46;;;;;;;17.60;13.60;;;;;;;8.88;64.17;101586.81;110311;1256;23088;-76
2022/05/09 02:42:15;;;;;;;17.90;14.00;;;;;;;8.85;64.13;101590.78;110273;1257;23054;-77
2022/05/09 02:44:44;;;;;;;16.00;14.10;;;;;;;8.80;64.23;101593.80;110071;1256;23044;-77
2022/05/09 02:47:13;;;;;;;18.90;15.10;;;;;;;8.78;64.52;101598.23;109568;1262;23071;-77
2022/05/09 02:49:42;;;;;;;17.70;15.30;;;;;;;8.76;64.80;101595.53;109900;1261;22020;-77
2022/05/09 02:52:12;;;;;;;19.50;15.50;;;;;;;8.76;64.97;101598.88;109557;1263;23623;-76
2022/05/09 02:54:42;;;;;;;17.90;15.50;;;;;;;8.73;65.02;101600.14;109574;1258;22387;-77
2022/05/09 02:57:13;;;;;;;18.10;16.20;;;;;;;8.71;65.06;101601.06;110246;1257;21974;-76
2022/05/09 02:59:43;;;;;;;19.80;17.70;;;;;;;8.69;65.33;101605.75;110262;1257;21979;-76
2022/05/09 03:02:12;;;;;;;19.00;17.00;;;;;;;8.68;65.42;101608.48;110235;1257;22026;-76
2022/05/09 03:04:41;;;;;;;19.60;16.60;;;;;;;8.66;65.47;101607.61;110193;1252;23669;-76
2022/05/09 03:07:19;;;;;;;19.70;16.60;;;;;;;8.64;65.71;101606.33;110061;1255;23615;-76
2022/05/09 03:09:50;;;;;;;20.10;17.80;;;;;;;8.65;66.00;101612.05;110438;1255;23584;-75
2022/05/09 03:12:19;;;;;;;22.00;19.30;;;;;;;8.66;66.05;101613.21;110196;1256;21972;-75
2022/05/09 03:14:49;;;;;;;25.60;19.90;;;;;;;8.66;66.02;101615.85;110333;1256;22725;-75
2022/05/09 03:17:19;;;;;;;23.50;18.80;;;;;;;8.65;66.09;101615.90;110278;1255;21982;-76
2022/05/09 03:19:50;;;;;;;22.30;20.20;;;;;;;8.65;66.19;101615.20;110317;1256;22924;-76
2022/05/09 03:22:19;;;;;;;21.40;18.70;;;;;;;8.66;66.36;101618.67;109607;1261;22073;-76
2022/05/09 03:24:49;;;;;;;22.80;19.30;;;;;;;8.67;66.52;101621.93;109690;1257;21973;-77
2022/05/09 03:27:18;;;;;;;22.60;20.20;;;;;;;8.66;66.56;101631.09;110310;1256;23482;-77
2022/05/09 03:29:47;;;;;;;21.90;19.80;;;;;;;8.66;66.59;101630.99;110251;1256;21979;-77
2022/05/09 03:32:16;;;;;;;23.30;20.60;;;;;;;8.66;66.80;101628.14;110143;1255;24280;-77
2022/05/09 03:34:46;;;;;;;20.40;18.10;;;;;;;8.67;66.81;101629.48;110208;1257;21979;-77
2022/05/09 03:37:15;;;;;;;21.80;18.40;;;;;;;8.68;66.98;101633.56;109708;1263;23689;-77
2022/05/09 03:39:44;;;;;;;23.70;21.30;;;;;;;8.70;67.08;101630.42;109573;1260;22016;-77
2022/05/09 03:42:13;;;;;;;22.50;19.50;;;;;;;8.72;67.05;101630.80;109973;1257;21957;-77
2022/05/09 03:44:42;;;;;;;24.30;21.30;;;;;;;8.74;67.08;101632.27;110245;1258;22799;-76
2022/05/09 03:47:11;;;;;;;22.60;20.30;;;;;;;8.73;67.10;101628.61;110232;1258;23087;-76
2022/05/09 03:49:41;;;;;;;26.10;21.90;;;;;;;8.76;67.29;101628.42;110169;1257;23041;-76
2022/05/09 03:52:10;;;;;;;24.20;21.70;;;;;;;8.80;67.50;101625.98;110187;1257;22113;-76
2022/05/09 03:54:39;;;;;;;22.60;20.40;;;;;;;8.85;67.71;101631.55;109337;1258;21966;-77
2022/05/09 03:57:08;;;;;;;23.50;20.90;;;;;;;8.90;67.60;101632.88;109901;1260;22160;-76
2022/05/09 03:59:38;;;;;;;23.90;21.40;;;;;;;8.94;67.64;101632.85;109930;1260;23157;-76
2022/05/09 04:02:07;;;;;;;22.20;20.00;;;;;;;8.99;67.65;101635.68;109322;1263;23700;-76
2022/05/09 04:04:36;;;;;;;24.30;20.00;;;;;;;9.03;67.67;101642.86;109470;1263;22002;-75
2022/05/09 04:07:06;;;;;;;22.90;20.60;;;;;;;9.07;67.51;101646.25;109439;1264;22817;-76
2022/05/09 04:09:36;;;;;;;21.60;19.70;;;;;;;9.10;67.52;101647.39;109442;1264;23167;-77
2022/05/09 04:12:06;;;;;;;22.20;19.40;;;;;;;9.15;67.59;101651.00;109313;1261;22052;-76
2022/05/09 04:17:23;;;;;;;22.40;19.20;;;;;;;9.25;67.52;101653.91;110505;1254;23570;-77
2022/05/09 04:19:52;;;;;;;22.80;19.10;;;;;;;9.32;67.78;101655.23;110382;1252;23860;-77
2022/05/09 04:22:21;;;;;;;22.20;19.90;;;;;;;9.40;67.67;101655.64;110764;1250;23676;-77
2022/05/09 04:24:50;;;;;;;21.00;18.90;;;;;;;9.47;67.54;101658.27;110277;1256;22032;-77
2022/05/09 04:27:19;;;;;;;21.80;19.60;;;;;;;9.53;67.71;101659.77;110369;1257;22261;-76
2022/05/09 04:29:49;;;;;;;22.20;19.90;;;;;;;9.61;67.67;101663.40;110510;1255;23045;-76
2022/05/09 04:32:18;;;;;;;25.80;22.00;;;;;;;9.70;67.66;101663.88;110236;1256;22743;-76
2022/05/09 04:34:47;;;;;;;22.10;19.80;;;;;;;9.82;67.82;101668.09;110302;1255;22008;-76
2022/05/09 04:37:16;;;;;;;24.10;20.70;;;;;;;9.94;67.61;101673.90;110365;1256;22092;-77
2022/05/09 04:39:45;;;;;;;22.90;18.80;;;;;;;10.07;67.43;101675.27;110413;1255;21959;-77
2022/05/09 04:42:14;;;;;;;19.40;17.30;;;;;;;10.18;67.13;101671.54;110267;1256;22017;-77
2022/05/09 04:44:44;;;;;;;19.30;17.40;;;;;;;10.29;66.93;101672.52;109851;1259;22139;-77
2022/05/09 04:47:18;;;;;;;18.90;15.90;;;;;;;10.46;66.95;101677.36;109264;1264;22067;-76
2022/05/09 04:49:47;;;;;;;16.80;13.80;;;;;;;10.64;66.81;101676.30;109176;1261;23759;-75
2022/05/09 04:52:23;;;;;;;14.20;12.70;;;;;;;10.79;65.88;101678.54;109609;1260;21976;-75
2022/05/09 04:54:53;;;;;;;15.20;12.80;;;;;;;10.78;64.63;101677.84;109824;1260;24374;-76
2022/05/09 04:57:23;;;;;;;12.90;11.60;;;;;;;10.72;64.26;101679.99;109590;1260;22220;-76
2022/05/09 04:59:52;;;;;;;13.60;12.20;;;;;;;10.76;64.62;101684.95;109630;1260;21986;-76
2022/05/09 05:02:21;;;;;;;14.00;12.30;;;;;;;10.87;64.70;101686.42;109740;1256;22917;-76
2022/05/09 05:04:51;;;;;;;15.00;11.90;;;;;;;11.02;64.40;101694.12;110267;1249;23135;-76
2022/05/09 05:07:20;;;;;;;12.00;10.80;;;;;;;11.17;64.24;101694.52;110697;1250;23650;-75
2022/05/09 05:09:50;;;;;;;15.70;10.40;;;;;;;11.36;64.05;101691.86;110584;1249;21958;-76
2022/05/09 05:12:19;;;;;;;11.50;10.30;;;;;;;11.62;64.02;101694.13;110677;1249;23034;-78
2022/05/09 05:14:48;;;;;;;10.90;9.30;;;;;;;11.88;63.51;101693.83;110708;1249;22740;-77
2022/05/09 05:17:19;;;;;;;12.00;9.00;;;;;;;12.15;63.00;101695.16;110300;1257;23617;-78
2022/05/09 05:19:49;;;;;;;10.50;8.20;;;;;;;12.37;61.78;101698.34;109970;1257;21960;-77
2022/05/09 05:22:18;;;;;;;9.30;7.70;;;;;;;12.52;60.96;101695.17;110271;1257;23692;-76
2022/05/09 05:24:52;;;;;;;11.40;8.70;;;;;;;12.75;60.66;101700.14;109935;1260;21979;-76
2022/05/09 05:27:23;;;;;;;11.20;8.00;;;;;;;12.95;59.68;101699.65;110155;1259;21980;-77
2022/05/09 05:29:59;;;;;;;13.10;8.90;;;;;;;13.18;59.53;101697.17;109969;1260;21974;-77
2022/05/09 05:32:34;;;;;;;;;;;;;;;13.52;59.32;101698.63;109929;1260;24519;-77
2022/05/09 05:35:06;;;;;;;8.80;7.90;;;;;;;13.78;58.54;101701.47;110103;1260;21961;-76
2022/05/09 05:37:38;;;;;;;9.60;6.80;;;;;;;14.00;57.79;101702.21;110190;1260;22080;-76
2022/05/09 05:40:09;;;;;;;;;;;;;;;14.20;56.52;101706.80;109903;1261;21959;-76
2022/05/09 05:42:42;;;;;;;11.80;6.70;;;;;;;14.27;55.90;101706.58;110330;1251;22729;-78
2022/05/09 05:45:13;;;;;;;;;;;;;;;14.42;55.54;101706.78;110730;1252;21949;-75
2022/05/09 05:47:47;;;;;;;10.60;6.80;;;;;;;14.52;55.00;101706.91;110549;1252;21975;-76
2022/05/09 05:50:21;;;;;;;6.50;5.60;;;;;;;14.66;54.42;101708.16;110617;1253;21966;-76
2022/05/09 05:52:50;;;;;;;8.40;5.60;;;;;;;14.91;54.60;101710.80;110777;1249;21965;-77
2022/05/09 05:55:19;;;;;;;10.30;6.00;;;;;;;15.21;53.59;101716.36;110657;1249;21959;-77
2022/05/09 05:57:49;;;;;;;7.00;6.30;;;;;;;15.45;52.57;101716.51;110726;1249;22449;-77
2022/05/09 06:00:22;;;;;;;8.90;6.50;;;;;;;15.73;52.28;101714.21;110885;1249;21958;-77
2022/05/09 06:02:51;;;;;;;8.30;5.70;;;;;;;16.03;51.40;101716.80;110772;1249;23763;-75
2022/05/09 06:05:20;;;;;;;8.30;5.50;;;;;;;16.22;50.27;101714.56;110599;1249;22410;-77
2022/05/09 06:07:55;;;;;;;8.90;4.80;;;;;;;16.41;49.59;101715.52;109787;1255;21975;-77
2022/05/09 06:10:30;;;;;;;8.00;5.40;;;;;;;16.54;48.60;101715.96;110083;1255;21970;-77
2022/05/09 06:13:04;;;;;;;6.20;5.10;;;;;;;16.65;48.12;101716.98;110422;1255;22220;-76
2022/05/09 06:15:38;;;;;;;6.00;5.20;;;;;;;16.77;48.46;101720.48;110196;1255;23594;-75
2022/05/09 06:18:09;;;;;;;6.40;4.40;;;;;;;17.06;48.45;101720.31;110288;1256;21956;-76
2022/05/09 06:20:43;;;;;;;8.70;5.90;;;;;;;17.32;47.47;101723.83;109928;1260;21985;-76
2022/05/09 06:23:16;;;;;;;7.40;5.20;;;;;;;17.57;46.97;101727.30;109924;1260;22446;-77
2022/05/09 06:25:47;;;;;;;6.50;4.70;;;;;;;17.84;46.43;101729.34;110102;1255;22239;-80
2022/05/09 06:28:23;;;;;;;15.10;6.40;;;;;;;17.88;44.52;101731.06;110311;1261;22412;-77
2022/05/09 06:30:54;;;;;;;7.70;5.00;;;;;;;17.87;44.44;101727.71;109327;1267;22001;-78
2022/05/09 06:33:30;;;;;;;5.40;4.80;;;;;;;17.85;43.82;101725.74;109139;1267;21982;-83
2022/05/09 06:36:05;;;;;;;6.90;4.20;;;;;;;17.66;43.57;101725.55;108851;1270;22053;-80
2022/05/09 06:38:35;;;;;;;8.00;4.80;;;;;;;17.62;44.21;101727.27;109002;1267;21538;-81
2022/05/09 06:41:10;;;;;;;6.50;5.00;;;;;;;17.86;44.70;101727.57;108764;1270;23592;-83
2022/05/09 06:43:43;;;;;;;8.40;4.60;;;;;;;18.06;43.97;101735.54;108688;1276;23616;-81
2022/05/09 06:46:13;;;;;;;9.40;4.50;;;;;;;18.21;43.17;101738.67;108703;1273;22005;-81
2022/05/09 06:48:43;;;;;;;6.40;4.40;;;;;;;18.26;42.52;101743.64;108504;1273;450684;-82
2022/05/09 06:51:14;;;;;;;;;;;;;;;18.29;42.06;101744.88;108934;1273;22015;-82
2022/05/09 06:53:45;;;;;;;5.10;3.90;;;;;;;18.29;42.40;101737.75;109023;1267;21989;-83
2022/05/09 06:56:15;;;;;;;7.30;4.90;;;;;;;18.44;42.45;101738.70;109209;1264;21989;-82
2022/05/09 06:58:47;;;;;;;8.40;4.70;;;;;;;18.62;42.31;101737.07;109706;1257;22093;-82
2022/05/09 07:01:19;;;;;;;5.80;4.50;;;;;;;18.94;42.39;101739.75;110311;1251;21918;-85
2022/05/09 07:03:51;;;;;;;4.80;3.70;;;;;;;19.23;41.23;101746.23;110709;1252;22233;-82
2022/05/09 07:06:23;;;;;;;7.90;4.50;;;;;;;19.36;40.31;101747.34;110799;1251;23751;-83
2022/05/09 07:08:57;;;;;;;4.70;3.70;;;;;;;19.42;39.98;101750.00;110828;1250;23106;-83
2022/05/09 07:11:27;;;;;;;6.00;4.20;;;;;;;19.55;39.99;101748.38;110749;1251;23777;-83
2022/05/09 07:14:01;;;;;;;6.40;4.10;;;;;;;19.76;39.88;101748.36;110789;1251;22068;-81
2022/05/09 07:16:33;;;;;;;7.00;4.30;;;;;;;19.95;39.18;101750.88;110653;1251;21973;-81
2022/05/09 07:19:04;;;;;;;5.90;3.70;;;;;;;19.99;38.74;101753.30;110779;1249;23703;-81
2022/05/09 07:21:33;;;;;;;5.60;3.80;;;;;;;20.07;38.31;101757.44;110309;1256;21980;-81
2022/05/09 07:24:03;;;;;;;12.80;4.50;;;;;;;20.19;38.47;101755.73;110435;1257;22068;-79
2022/05/09 07:26:37;;;;;;;6.10;3.60;;;;;;;20.32;38.37;101753.75;110240;1257;23626;-80
2022/05/09 07:29:09;;;;;;;6.00;3.70;;;;;;;20.46;37.65;101752.78;110543;1256;22934;-80
2022/05/09 07:31:38;;;;;;;10.10;4.20;;;;;;;20.53;37.62;101757.23;110211;1256;23157;-79
2022/05/09 07:34:07;;;;;;;11.80;4.40;;;;;;;20.74;37.78;101759.43;110550;1258;22337;-80
2022/05/09 07:36:36;;;;;;;6.30;3.50;;;;;;;20.95;37.13;101755.78;110236;1255;22041;-81
2022/05/09 07:39:06;;;;;;;11.40;4.40;;;;;;;21.03;36.32;101757.95;109734;1259;23574;-79
2022/05/09 07:41:37;;;;;;;4.20;3.40;;;;;;;20.94;36.08;101759.48;109970;1258;21990;-80
2022/05/09 07:44:06;;;;;;;6.70;3.80;;;;;;;20.88;36.24;101758.80;109716;1259;21967;-80
2022/05/09 07:46:35;;;;;;;5.20;3.40;;;;;;;20.76;35.88;101760.20;110277;1257;22451;-80
2022/05/09 07:49:15;;;;;;;5.00;3.40;;;;;;;20.61;35.77;101760.86;109977;1257;21960;-79
2022/05/09 07:51:44;;;;;;;7.10;3.40;;;;;;;20.56;36.15;101761.54;109848;1260;23030;-80
2022/05/09 07:54:14;;;;;;;6.40;3.10;;;;;;;20.69;36.64;101756.94;109824;1260;22998;-80
2022/05/09 07:56:44;;;;;;;4.90;3.20;;;;;;;20.81;36.14;101754.89;109935;1261;22037;-79
2022/05/09 07:59:20;;;;;;;5.40;3.30;;;;;;;20.94;36.12;101750.61;109270;1265;23065;-80
2022/05/09 08:01:52;;;;;;;5.50;3.40;;;;;;;21.16;36.06;101750.99;108928;1272;23619;-79
2022/05/09 08:04:24;;;;;;;5.20;3.30;;;;;;;21.34;35.35;101748.02;108524;1273;23616;-80
2022/05/09 08:06:53;;;;;;;8.00;3.30;;;;;;;21.46;34.93;101749.66;108726;1272;23728;-79
2022/05/09 08:09:22;;;;;;;6.70;3.40;;;;;;;21.50;34.51;101751.89;108532;1267;24387;-79
2022/05/09 08:11:52;;;;;;;6.00;2.90;;;;;;;21.56;34.82;101751.69;108662;1273;21994;-79
2022/05/09 08:14:21;;;;;;;5.90;3.40;;;;;;;21.81;35.14;101753.38;108675;1273;21990;-80
2022/05/09 08:16:54;;;;;;;7.80;3.70;;;;;;;22.14;34.65;101757.20;108988;1266;21985;-79
2022/05/09 08:19:23;;;;;;;4.50;3.00;;;;;;;22.33;33.90;101753.81;109107;1264;23036;-80
2022/05/09 08:21:52;;;;;;;7.50;3.20;;;;;;;22.49;33.31;101754.88;109077;1264;23045;-80
2022/05/09 08:24:30;;;;;;;8.10;3.30;;;;;;;22.47;33.19;101755.27;109459;1264;23164;-80
2022/05/09 08:26:59;;;;;;;4.60;3.20;;;;;;;22.57;32.79;101756.23;109413;1264;23081;-80
2022/05/09 08:29:30;;;;;;;4.40;3.30;;;;;;;22.53;32.77;101753.87;109708;1258;22082;-79
2022/05/09 08:31:59;;;;;;;3.90;3.00;;;;;;;22.67;33.10;101757.05;109531;1263;21986;-80
2022/05/09 08:34:28;;;;;;;5.60;2.90;;;;;;;22.67;32.51;101758.95;109777;1263;22746;-79
2022/05/09 08:37:00;;;;;;;4.70;2.80;;;;;;;22.74;32.84;101755.98;108899;1273;22001;-79
2022/05/09 08:39:32;;;;;;;6.20;3.00;;;;;;;22.94;32.75;101754.16;109227;1262;21971;-80
2022/05/09 08:42:08;;;;;;;6.40;2.80;;;;;;;23.07;32.32;101752.85;109436;1262;21980;-80
2022/05/09 08:44:55;;;;;;;6.70;3.30;;;;;;;23.13;31.92;101756.64;109743;1262;23640;-79
2022/05/09 08:48:03;;;;;;;5.20;3.20;;;;;;;23.21;31.83;101756.34;110069;1261;24642;-79
2022/05/09 08:50:56;;;;;;;7.70;3.40;;;;;;;23.22;31.07;101756.45;109632;1261;21969;-80
2022/05/09 08:53:27;;;;;;;4.10;2.90;;;;;;;22.72;30.76;101753.59;109951;1261;21982;-80
2022/05/09 08:55:59;;;;;;;5.70;2.90;;;;;;;22.54;32.19;101755.20;109577;1263;22049;-79
2022/05/09 08:58:57;;;;;;;8.50;3.10;;;;;;;22.71;32.44;101753.80;109522;1263;23737;-80
2022/05/09 09:01:40;;;;;;;6.10;3.20;;;;;;;23.01;32.11;101751.42;109149;1266;22544;-80
2022/05/09 09:04:26;;;;;;;5.20;3.00;;;;;;;22.80;30.86;101751.81;109338;1266;21969;-81
2022/05/09 09:07:28;;;;;;;6.50;3.50;;;;;;;22.56;31.54;101748.27;109006;1272;21982;-80
2022/05/09 09:10:26;;;;;;;6.50;3.00;;;;;;;22.42;31.92;101754.33;109290;1267;23099;-80
2022/05/09 09:13:35;;;;;;;4.20;3.00;;;;;;;22.20;31.11;101757.23;108857;1275;22403;-80
2022/05/09 09:16:57;;;;;;;7.70;3.00;;;;;;;21.72;31.26;101753.42;109040;1268;21983;-82
2022/05/09 09:19:38;;;;;;;5.50;3.00;;;;;;;21.36;32.33;101757.23;108890;1273;23006;-79
2022/05/09 09:22:47;;;;;;;5.10;2.50;;;;;;;21.56;33.34;101758.88;108938;1272;22611;-80
2022/05/09 09:25:57;;;;;;;6.30;2.50;;;;;;;21.93;32.41;101761.85;108853;1270;23645;-80
2022/05/09 09:28:49;;;;;;;4.10;2.60;;;;;;;21.92;30.85;101760.28;109027;1270;21986;-80
2022/05/09 09:31:30;;;;;;;5.40;2.80;;;;;;;21.55;30.99;101756.53;109202;1263;21968;-80
2022/05/09 09:34:34;;;;;;;7.80;2.70;;;;;;;21.47;31.36;101755.99;109334;1267;23011;-79
2022/05/09 09:37:19;;;;;;;6.00;2.90;;;;;;;21.23;30.42;101758.05;109293;1260;23085;-79
2022/05/09 09:39:48;;;;;;;7.50;2.60;;;;;;;21.02;31.15;101753.48;109149;1264;24415;-80
2022/05/09 09:42:18;;;;;;;5.30;2.50;;;;;;;21.10;31.68;101751.35;109297;1264;23631;-79
2022/05/09 09:44:49;;;;;;;7.00;3.20;;;;;;;21.04;31.12;101753.73;109583;1264;22083;-79
2022/05/09 09:47:19;;;;;;;4.10;2.70;;;;;;;20.95;31.62;101753.38;109589;1264;21977;-81
2022/05/09 09:50:25;;;;;;;5.40;2.40;;;;;;;21.11;32.11;101743.05;109941;1260;21972;-80
2022/05/09 09:53:00;;;;;;;4.60;2.60;;;;;;;21.27;31.41;101747.08;109979;1260;22163;-80
2022/05/09 09:55:40;;;;;;;4.70;2.10;;;;;;;21.42;31.32;101745.52;109948;1263;21978;-81
2022/05/09 09:58:27;;;;;;;5.40;2.80;;;;;;;21.73;31.33;101744.13;109764;1257;23028;-82
2022/05/09 10:01:20;;;;;;;3.80;2.50;;;;;;;22.05;30.38;101745.57;110784;1256;21969;-80
2022/05/09 10:04:26;;;;;;;6.10;1.90;;;;;;;22.20;29.79;101744.48;110819;1257;21984;-79
2022/05/09 10:07:13;;;;;;;5.20;2.40;;;;;;;22.13;29.18;101745.44;110436;1256;23758;-80
2022/05/09 10:10:13;;;;;;;5.60;1.90;;;;;;;22.19;29.33;101739.02;110181;1258;21989;-80
2022/05/09 10:12:48;;;;;;;4.60;2.80;;;;;;;22.33;28.96;101738.73;110568;1256;21977;-81
2022/05/09 10:15:23;;;;;;;5.10;2.60;;;;;;;22.54;29.33;101740.85;110693;1254;23008;-79
2022/05/09 10:17:57;;;;;;;5.10;2.90;;;;;;;22.73;28.33;101736.55;110658;1257;21966;-79
2022/05/09 10:20:39;;;;;;;5.30;2.20;;;;;;;22.63;27.62;101733.57;110642;1254;22372;-80
2022/05/09 10:26:13;;;;;;;7.00;2.50;;;;;;;21.91;28.53;101735.65;110641;1256;22057;-80
2022/05/09 10:28:49;;;;;;;5.90;2.40;;;;;;;21.91;28.84;101728.16;110663;1256;22006;-80
2022/05/09 10:31:25;;;;;;;7.60;3.30;;;;;;;22.01;28.40;101724.88;110284;1256;22439;-80
2022/05/09 10:34:16;;;;;;;6.10;2.50;;;;;;;21.95;27.92;101724.27;110565;1256;22094;-79
2022/05/09 10:37:02;;;;;;;8.30;2.40;;;;;;;21.89;27.94;101719.31;110660;1256;23551;-80
2022/05/09 10:39:38;;;;;;;6.30;2.50;;;;;;;21.76;27.95;101713.70;109607;1262;23575;-79
2022/05/09 10:42:10;;;;;;;6.10;2.20;;;;;;;21.50;27.69;101716.18;109820;1258;21969;-78
2022/05/09 10:44:59;;;;;;;4.20;2.30;;;;;;;21.08;27.98;101716.16;110045;1258;24342;-79
2022/05/09 10:48:13;;;;;;;4.00;2.70;;;;;;;20.72;28.47;101714.35;110293;1258;21977;-80
2022/05/09 10:50:49;;;;;;;5.70;1.90;;;;;;;20.56;28.87;101710.11;109700;1261;23088;-80
2022/05/09 10:53:53;;;;;;;5.50;2.40;;;;;;;20.52;28.91;101702.98;110126;1261;22008;-80
2022/05/09 10:56:44;;;;;;;6.90;2.40;;;;;;;20.45;28.65;101708.73;109942;1261;22054;-80
2022/05/09 10:59:25;;;;;;;4.10;2.20;;;;;;;20.31;29.11;101708.98;110200;1258;22380;-79
2022/05/09 11:02:33;;;;;;;3.90;2.20;;;;;;;20.19;29.22;101703.92;110158;1259;22324;-79
2022/05/09 11:05:03;;;;;;;6.10;2.30;;;;;;;20.07;29.51;101695.94;109530;1264;22029;-80
2022/05/09 11:08:11;;;;;;;6.40;2.60;;;;;;;20.03;29.63;101701.69;108966;1270;23732;-79
2022/05/09 11:11:00;;;;;;;5.50;2.20;;;;;;;19.90;29.47;101697.90;108928;1270;21945;-79
2022/05/09 11:14:05;;;;;;;3.00;2.00;;;;;;;19.75;29.46;101696.60;108906;1270;22451;-79
2022/05/09 11:17:27;;;;;;;9.10;2.50;;;;;;;19.61;29.81;101692.20;108754;1270;22000;-79
2022/05/09 11:20:27;;;;;;;4.60;2.00;;;;;;;19.57;30.07;101685.31;109053;1267;24401;-79
2022/05/09 11:23:20;;;;;;;5.90;3.00;;;;;;;19.46;30.22;101686.46;109254;1264;23068;-79
2022/05/09 11:26:24;;;;;;;6.30;3.10;;;;;;;19.44;30.20;101689.16;110012;1260;23063;-79
2022/05/09 11:28:58;;;;;;;6.90;2.70;;;;;;;19.30;29.81;101690.65;110258;1257;23030;-80
2022/05/09 11:31:55;;;;;;;3.90;2.10;;;;;;;19.20;30.07;101689.73;110250;1257;23789;-80
2022/05/09 11:35:03;;;;;;;6.70;2.50;;;;;;;19.19;30.51;101694.23;110249;1258;22110;-78
2022/05/09 11:37:39;;;;;;;7.50;2.40;;;;;;;19.16;30.59;101679.96;110408;1258;21983;-80
2022/05/09 11:40:55;;;;;;;3.90;2.10;;;;;;;19.24;31.03;101671.23;110507;1258;21993;-79
2022/05/09 11:43:59;;;;;;;5.20;2.10;;;;;;;19.41;31.18;101668.89;109313;1268;22845;-79
2022/05/09 11:46:53;;;;;;;4.30;2.60;;;;;;;19.48;30.71;101665.65;108816;1273;22048;-79
2022/05/09 11:50:10;;;;;;;5.70;2.20;;;;;;;19.54;30.77;101660.83;109068;1270;22243;-80
2022/05/09 11:52:44;;;;;;;5.90;2.80;;;;;;;19.56;30.30;101663.37;109081;1270;22033;-79
2022/05/09 11:55:24;;;;;;;6.90;2.20;;;;;;;19.44;29.70;101664.67;109039;1270;22154;-80
2022/05/09 11:58:01;;;;;;;4.10;2.00;;;;;;;19.37;29.66;101666.14;109021;1269;23615;-80
2022/05/09 12:00:35;;;;;;;3.40;1.80;;;;;;;19.28;29.73;101658.40;108979;1270;23805;-80
2022/05/09 12:03:13;;;;;;;4.70;2.10;;;;;;;19.31;30.14;101655.17;108805;1271;23137;-78